sensor_id;sensor_type;location;lat;lon;timestamp;P1;durP1;ratioP1;P2;durP2;ratioP2
74122;SDS011;62474;50.780;15.074;2022-11-14T05:54:35;17.23;;;8.52;;
74122;SDS011;62474;50.780;15.074;2022-11-14T05:57:02;15.45;;;7.88;;
74122;SDS011;62474;50.780;15.074;2022-11-14T05:59:28;19.20;;;9.38;;
74122;SDS011;62474;50.780;15.074;2022-11-14T06:01:54;16.97;;;8.93;;
74122;SDS011;62474;50.780;15.074;2022-11-14T06:04:20;18.08;;;8.18;;
74122;SDS011;62474;50.780;15.074;2022-11-14T06:06:46;19.40;;;10.18;;
74122;SDS011;62474;50.780;15.074;2022-11-14T06:09:12;19.20;;;8.30;;
74122;SDS011;62474;50.780;15.074;2022-11-14T06:11:38;14.65;;;7.35;;
74122;SDS011;62474;50.780;15.074;2022-11-14T06:14:04;16.37;;;7.70;;
74122;SDS011;62474;50.780;15.074;2022-11-14T06:16:30;17.58;;;8.85;;
74122;SDS011;62474;50.780;15.074;2022-11-14T06:18:56;19.33;;;8.98;;
74122;SDS011;62474;50.780;15.074;2022-11-14T06:21:23;16.45;;;7.93;;
74122;SDS011;62474;50.780;15.074;2022-11-14T06:23:49;18.67;;;8.50;;
74122;SDS011;62474;50.780;15.074;2022-11-14T06:26:20;17.77;;;8.63;;
74122;SDS011;62474;50.780;15.074;2022-11-14T06:28:46;16.30;;;8.60;;
74122;SDS011;62474;50.780;15.074;2022-11-14T06:31:13;21.33;;;9.30;;
74122;SDS011;62474;50.780;15.074;2022-11-14T06:33:39;20.13;;;10.00;;
74122;SDS011;62474;50.780;15.074;2022-11-14T06:36:05;19.75;;;9.95;;
74122;SDS011;62474;50.780;15.074;2022-11-14T06:38:32;18.03;;;8.87;;
74122;SDS011;62474;50.780;15.074;2022-11-14T06:41:05;22.15;;;10.35;;
74122;SDS011;62474;50.780;15.074;2022-11-14T06:43:34;22.20;;;10.95;;
74122;SDS011;62474;50.780;15.074;2022-11-14T06:46:01;14.57;;;6.88;;
74122;SDS011;62474;50.780;15.074;2022-11-14T06:48:27;15.90;;;7.78;;
74122;SDS011;62474;50.780;15.074;2022-11-14T06:50:53;17.73;;;10.63;;
74122;SDS011;62474;50.780;15.074;2022-11-14T06:53:20;20.17;;;11.05;;
74122;SDS011;62474;50.780;15.074;2022-11-14T06:55:53;17.52;;;9.25;;
74122;SDS011;62474;50.780;15.074;2022-11-14T06:58:19;17.90;;;8.32;;
74122;SDS011;62474;50.780;15.074;2022-11-14T15:45:47;23.27;;;11.32;;
74122;SDS011;62474;50.780;15.074;2022-11-14T15:48:13;30.83;;;14.25;;
74122;SDS011;62474;50.780;15.074;2022-11-14T15:50:40;32.92;;;15.43;;
74122;SDS011;62474;50.780;15.074;2022-11-14T15:53:16;37.27;;;17.87;;
74122;SDS011;62474;50.780;15.074;2022-11-14T15:55:47;35.88;;;18.25;;
74122;SDS011;62474;50.780;15.074;2022-11-14T15:58:13;34.53;;;18.17;;
74122;SDS011;62474;50.780;15.074;2022-11-14T16:00:39;34.88;;;17.25;;
74122;SDS011;62474;50.780;15.074;2022-11-14T16:03:09;36.42;;;18.33;;
74122;SDS011;62474;50.780;15.074;2022-11-14T16:05:36;29.93;;;16.53;;
74122;SDS011;62474;50.780;15.074;2022-11-14T16:08:02;32.40;;;16.98;;
74122;SDS011;62474;50.780;15.074;2022-11-14T16:10:28;36.55;;;17.13;;
74122;SDS011;62474;50.780;15.074;2022-11-14T16:12:54;39.70;;;18.02;;
74122;SDS011;62474;50.780;15.074;2022-11-14T16:15:20;36.40;;;19.50;;
74122;SDS011;62474;50.780;15.074;2022-11-14T16:17:47;31.77;;;15.60;;
74122;SDS011;62474;50.780;15.074;2022-11-14T16:22:40;32.72;;;17.38;;
74122;SDS011;62474;50.780;15.074;2022-11-14T16:25:14;35.67;;;19.38;;
74122;SDS011;62474;50.780;15.074;2022-11-14T16:27:41;23.23;;;10.90;;
74122;SDS011;62474;50.780;15.074;2022-11-14T16:30:09;31.23;;;16.90;;
74122;SDS011;62474;50.780;15.074;2022-11-14T16:32:35;37.45;;;19.77;;
74122;SDS011;62474;50.780;15.074;2022-11-14T16:35:01;25.95;;;13.98;;
74122;SDS011;62474;50.780;15.074;2022-11-14T16:37:27;31.23;;;15.52;;
74122;SDS011;62474;50.780;15.074;2022-11-14T16:39:53;26.30;;;13.70;;
74122;SDS011;62474;50.780;15.074;2022-11-14T16:42:19;27.93;;;15.17;;
74122;SDS011;62474;50.780;15.074;2022-11-14T16:44:45;33.45;;;18.73;;
74122;SDS011;62474;50.780;15.074;2022-11-14T16:47:12;29.80;;;15.07;;
74122;SDS011;62474;50.780;15.074;2022-11-14T16:49:39;34.85;;;18.70;;
74122;SDS011;62474;50.780;15.074;2022-11-14T16:52:05;29.23;;;14.77;;
74122;SDS011;62474;50.780;15.074;2022-11-14T16:54:32;32.03;;;18.05;;
74122;SDS011;62474;50.780;15.074;2022-11-14T16:56:58;32.30;;;15.52;;
74122;SDS011;62474;50.780;15.074;2022-11-14T16:59:24;30.35;;;16.05;;
74122;SDS011;62474;50.780;15.074;2022-11-14T17:01:50;36.27;;;19.03;;
74122;SDS011;62474;50.780;15.074;2022-11-14T17:04:16;31.47;;;15.53;;
74122;SDS011;62474;50.780;15.074;2022-11-14T17:06:42;31.45;;;16.50;;
74122;SDS011;62474;50.780;15.074;2022-11-14T17:09:13;24.20;;;13.05;;
74122;SDS011;62474;50.780;15.074;2022-11-14T17:11:39;32.00;;;16.42;;
74122;SDS011;62474;50.780;15.074;2022-11-14T17:14:05;33.30;;;16.48;;
74122;SDS011;62474;50.780;15.074;2022-11-14T17:16:31;31.67;;;15.90;;
74122;SDS011;62474;50.780;15.074;2022-11-14T17:18:57;31.95;;;17.13;;
74122;SDS011;62474;50.780;15.074;2022-11-14T17:21:23;35.72;;;20.35;;
74122;SDS011;62474;50.780;15.074;2022-11-14T17:23:56;32.65;;;17.65;;
74122;SDS011;62474;50.780;15.074;2022-11-14T17:26:25;30.05;;;14.60;;
74122;SDS011;62474;50.780;15.074;2022-11-14T17:28:51;29.00;;;14.30;;
74122;SDS011;62474;50.780;15.074;2022-11-14T17:31:17;34.25;;;17.67;;
74122;SDS011;62474;50.780;15.074;2022-11-14T17:33:48;29.65;;;15.50;;
74122;SDS011;62474;50.780;15.074;2022-11-14T17:36:14;29.13;;;14.52;;
74122;SDS011;62474;50.780;15.074;2022-11-14T17:38:40;26.50;;;13.77;;
74122;SDS011;62474;50.780;15.074;2022-11-14T17:41:12;32.13;;;16.45;;
74122;SDS011;62474;50.780;15.074;2022-11-14T17:43:38;31.00;;;16.67;;
74122;SDS011;62474;50.780;15.074;2022-11-14T17:46:11;34.70;;;17.58;;
74122;SDS011;62474;50.780;15.074;2022-11-14T17:48:40;23.05;;;11.82;;
74122;SDS011;62474;50.780;15.074;2022-11-14T17:51:09;32.53;;;16.60;;
74122;SDS011;62474;50.780;15.074;2022-11-14T17:53:36;30.13;;;14.93;;
74122;SDS011;62474;50.780;15.074;2022-11-14T17:56:05;32.65;;;17.52;;
74122;SDS011;62474;50.780;15.074;2022-11-14T17:58:31;27.67;;;15.38;;
74122;SDS011;62474;50.780;15.074;2022-11-14T18:00:58;25.02;;;13.93;;
74122;SDS011;62474;50.780;15.074;2022-11-14T18:03:24;29.43;;;15.20;;
74122;SDS011;62474;50.780;15.074;2022-11-14T18:05:59;24.20;;;13.05;;
74122;SDS011;62474;50.780;15.074;2022-11-14T18:08:28;24.58;;;13.43;;
74122;SDS011;62474;50.780;15.074;2022-11-14T18:10:58;30.52;;;16.25;;
74122;SDS011;62474;50.780;15.074;2022-11-14T18:13:24;27.02;;;12.77;;
74122;SDS011;62474;50.780;15.074;2022-11-14T18:15:50;24.77;;;13.37;;
74122;SDS011;62474;50.780;15.074;2022-11-14T18:18:16;23.73;;;11.88;;
74122;SDS011;62474;50.780;15.074;2022-11-14T18:20:45;24.60;;;12.68;;
74122;SDS011;62474;50.780;15.074;2022-11-14T18:23:11;30.35;;;16.05;;
74122;SDS011;62474;50.780;15.074;2022-11-14T18:25:37;29.20;;;15.10;;
74122;SDS011;62474;50.780;15.074;2022-11-14T18:28:03;25.77;;;13.77;;
74122;SDS011;62474;50.780;15.074;2022-11-14T18:30:29;28.23;;;14.95;;
74122;SDS011;62474;50.780;15.074;2022-11-14T18:32:55;26.85;;;12.98;;
74122;SDS011;62474;50.780;15.074;2022-11-14T18:35:21;30.17;;;16.05;;
74122;SDS011;62474;50.780;15.074;2022-11-14T18:37:47;27.42;;;14.40;;
